Time;durP1;ratioP1;P1;durP2;ratioP2;P2;SDS_P1;SDS_P2;PMS_P1;PMS_P2;Temp;Humidity;BMP_temperature;BMP_pressure;BME280_temperature;BME280_humidity;BME280_pressure;Samples;Min_cycle;Max_cycle;Signal;HPM_P1;HPM_P2
2022/05/29 00:01:14;;;;;;;4.20;2.33;;;12.40;68.10;;;;;;5014450;28;20221;-87
2022/05/29 00:03:40;;;;;;;5.90;2.57;;;12.50;67.60;;;;;;5014834;28;20835;-87
2022/05/29 00:06:06;;;;;;;9.18;2.90;;;12.40;67.70;;;;;;5014522;28;20316;-87
2022/05/29 00:08:35;;;;;;;7.75;2.05;;;12.40;67.40;;;;;;5014518;28;20181;-87
2022/05/29 00:11:01;;;;;;;6.03;2.65;;;12.50;67.60;;;;;;5014162;28;20205;-87
2022/05/29 00:13:28;;;;;;;7.07;1.92;;;12.40;68.10;;;;;;5014201;28;20269;-87
2022/05/29 00:15:54;;;;;;;10.43;2.55;;;12.30;68.00;;;;;;5015661;28;20226;-87
2022/05/29 00:18:20;;;;;;;5.28;2.17;;;12.30;68.30;;;;;;5014868;28;20664;-87
2022/05/29 00:20:51;;;;;;;3.03;1.90;;;12.30;68.40;;;;;;5016123;28;20213;-87
2022/05/29 00:23:18;;;;;;;4.32;1.75;;;12.30;68.40;;;;;;5016371;28;20402;-87
2022/05/29 00:25:45;;;;;;;6.72;2.33;;;12.30;68.70;;;;;;5016107;28;20199;-87
2022/05/29 00:28:11;;;;;;;6.15;2.30;;;12.40;68.20;;;;;;5021472;28;20183;-87
2022/05/29 00:30:37;;;;;;;14.03;2.10;;;12.50;67.50;;;;;;5035844;28;20206;-87
2022/05/29 00:33:05;;;;;;;4.87;2.10;;;12.50;67.20;;;;;;5030682;28;20182;-87
2022/05/29 00:35:31;;;;;;;5.55;1.85;;;12.50;66.90;;;;;;5031087;28;20260;-87
2022/05/29 00:37:57;;;;;;;4.70;1.80;;;12.50;66.90;;;;;;5030839;28;20178;-87
2022/05/29 00:40:36;;;;;;;6.40;1.90;;;12.60;67.00;;;;;;5016809;28;20422;-87
2022/05/29 00:43:03;;;;;;;7.40;2.15;;;12.40;67.80;;;;;;5033107;28;20174;-87
2022/05/29 00:45:37;;;;;;;8.15;2.42;;;12.60;66.80;;;;;;5027941;28;20202;-87
2022/05/29 00:48:04;;;;;;;7.03;2.30;;;12.40;66.60;;;;;;5044978;28;20637;-87
2022/05/29 00:50:38;;;;;;;6.90;1.95;;;12.40;66.80;;;;;;5045706;28;20210;-88
2022/05/29 00:53:04;;;;;;;6.43;1.90;;;12.40;66.70;;;;;;5039348;28;20187;-87
2022/05/29 00:55:30;;;;;;;10.43;2.57;;;12.30;66.40;;;;;;5033239;28;20225;-87
2022/05/29 00:58:03;;;;;;;8.07;2.28;;;12.30;66.30;;;;;;5039390;28;20214;-87
2022/05/29 01:00:31;;;;;;;5.35;1.70;;;12.30;65.60;;;;;;5046397;28;20179;-87
2022/05/29 01:03:00;;;;;;;6.70;2.10;;;12.40;65.20;;;;;;5049646;28;20163;-88
2022/05/29 01:05:29;;;;;;;9.75;2.05;;;12.20;65.90;;;;;;5049920;28;20218;-87
2022/05/29 01:08:10;;;;;;;5.63;2.42;;;12.20;66.30;;;;;;5041345;28;20229;-87
2022/05/29 01:11:09;;;;;;;6.65;2.25;;;12.10;67.00;;;;;;5035059;28;20317;-87
2022/05/29 01:13:44;;;;;;;7.68;2.13;;;12.10;67.60;;;;;;5048962;28;20163;-87
2022/05/29 01:16:57;;;;;;;4.03;2.85;;;12.10;68.00;;;;;;5053068;28;20197;-88
2022/05/29 01:19:34;;;;;;;5.75;2.47;;;12.20;67.70;;;;;;5002826;28;20194;-87
2022/05/29 01:22:11;;;;;;;4.90;2.05;;;12.20;68.20;;;;;;5034160;28;20178;-88
2022/05/29 01:24:54;;;;;;;6.63;2.53;;;12.20;67.90;;;;;;5036707;28;20701;-88
2022/05/29 01:27:38;;;;;;;7.35;2.53;;;12.30;68.00;;;;;;5041595;28;20299;-87
2022/05/29 01:30:04;;;;;;;9.27;2.95;;;12.40;67.10;;;;;;5042250;28;20202;-88
2022/05/29 01:32:48;;;;;;;5.00;2.38;;;12.40;67.00;;;;;;5033544;28;20207;-88
2022/05/29 01:35:23;;;;;;;8.70;2.25;;;12.30;67.60;;;;;;5024096;28;20674;-88
2022/05/29 01:37:56;;;;;;;7.13;2.15;;;12.30;67.80;;;;;;5022496;28;20257;-88
2022/05/29 01:40:35;;;;;;;7.82;2.05;;;12.20;68.30;;;;;;5019745;28;20252;-89
2022/05/29 01:43:19;;;;;;;9.73;2.35;;;12.10;68.50;;;;;;5017634;28;20178;-87
2022/05/29 01:46:00;;;;;;;6.00;2.13;;;12.10;68.40;;;;;;5017080;28;20212;-89
2022/05/29 01:48:44;;;;;;;8.60;1.80;;;12.10;68.10;;;;;;5016262;28;20174;-89
2022/05/29 01:51:40;;;;;;;8.02;1.90;;;12.10;67.30;;;;;;5017356;28;20209;-89
2022/05/29 01:54:24;;;;;;;4.45;1.92;;;12.10;66.80;;;;;;5016765;28;20209;-88
2022/05/29 01:56:54;;;;;;;7.82;2.00;;;12.10;66.50;;;;;;5017114;28;20177;-89
2022/05/29 01:59:45;;;;;;;7.90;2.35;;;12.10;66.20;;;;;;5017289;28;20175;-89
2022/05/29 02:02:35;;;;;;;4.93;1.80;;;12.20;65.80;;;;;;5017042;28;20610;-89
2022/05/29 02:05:05;;;;;;;6.18;2.35;;;12.20;66.10;;;;;;5018142;28;20319;-89
2022/05/29 02:07:48;;;;;;;7.82;2.10;;;12.20;66.60;;;;;;5021373;28;20206;-89
2022/05/29 02:10:31;;;;;;;5.50;3.00;;;12.20;66.70;;;;;;5022877;28;20209;-89
2022/05/29 02:13:11;;;;;;;4.25;2.40;;;12.20;66.80;;;;;;5019883;28;20181;-88
2022/05/29 02:15:48;;;;;;;4.63;2.30;;;12.20;66.60;;;;;;5039143;28;20271;-88
2022/05/29 02:18:24;;;;;;;4.93;2.10;;;12.20;66.70;;;;;;5039672;28;20384;-89
2022/05/29 02:20:53;;;;;;;5.55;2.40;;;12.20;66.70;;;;;;5008474;28;20179;-88
2022/05/29 02:23:40;;;;;;;7.72;2.10;;;12.30;66.70;;;;;;5013559;28;20182;-89
2022/05/29 02:26:23;;;;;;;4.90;1.80;;;12.40;66.10;;;;;;5018230;28;20233;-89
2022/05/29 02:28:58;;;;;;;8.13;2.55;;;12.30;65.90;;;;;;5019905;28;20250;-89
2022/05/29 02:31:29;;;;;;;6.35;2.00;;;12.30;65.50;;;;;;5023363;28;20237;-89
2022/05/29 02:34:27;;;;;;;2.08;1.75;;;12.20;64.30;;;;;;5024120;28;20186;-89
2022/05/29 02:37:04;;;;;;;5.82;1.80;;;12.30;63.50;;;;;;5023370;28;20198;-89
2022/05/29 02:39:30;;;;;;;2.45;1.60;;;12.30;62.70;;;;;;5018489;28;20181;-89
2022/05/29 02:42:08;;;;;;;4.50;2.13;;;12.40;62.20;;;;;;5024803;28;20186;-89
2022/05/29 02:44:46;;;;;;;4.80;1.70;;;12.30;62.10;;;;;;5006707;28;20214;-89
2022/05/29 02:47:58;;;;;;;4.75;1.50;;;12.20;62.50;;;;;;5020991;28;20186;-89
2022/05/29 02:50:44;;;;;;;3.80;1.63;;;12.20;63.00;;;;;;5008747;28;20258;-89
2022/05/29 02:53:14;;;;;;;5.68;1.50;;;12.20;63.90;;;;;;5017104;28;20183;-89
2022/05/29 02:55:42;;;;;;;5.03;2.13;;;12.20;64.20;;;;;;5023000;28;20201;-89
2022/05/29 02:58:19;;;;;;;5.10;2.47;;;12.10;65.00;;;;;;5011218;28;20179;-89
2022/05/29 03:01:17;;;;;;;7.15;2.30;;;12.10;65.50;;;;;;4997716;28;20245;-88
2022/05/29 03:03:58;;;;;;;10.43;2.33;;;12.10;65.80;;;;;;4997808;28;20195;-89
2022/05/29 03:06:38;;;;;;;5.20;1.73;;;12.00;66.30;;;;;;4995247;28;20179;-89
2022/05/29 03:09:38;;;;;;;4.95;2.20;;;12.10;66.50;;;;;;4995580;28;20261;-89
2022/05/29 03:12:19;;;;;;;7.43;2.55;;;12.20;66.80;;;;;;5004615;28;20285;-89
2022/05/29 03:15:21;;;;;;;14.63;2.65;;;12.10;67.10;;;;;;5008895;28;20206;-89
2022/05/29 03:18:17;;;;;;;3.67;2.03;;;12.10;67.40;;;;;;4993461;28;20190;-89
2022/05/29 03:21:15;;;;;;;4.22;2.45;;;12.20;67.20;;;;;;5019792;28;20179;-90
2022/05/29 03:23:55;;;;;;;7.15;1.90;;;12.10;67.90;;;;;;5025132;28;20193;-89
2022/05/29 03:26:30;;;;;;;4.93;2.00;;;12.00;68.20;;;;;;5034037;28;20234;-89
2022/05/29 03:29:10;;;;;;;4.25;1.75;;;12.00;68.40;;;;;;5003950;28;20174;-89
2022/05/29 03:31:49;;;;;;;10.38;2.78;;;11.90;68.40;;;;;;4999692;28;20678;-88
2022/05/29 03:34:15;;;;;;;5.25;2.15;;;11.90;68.50;;;;;;5017246;28;20230;-89
2022/05/29 03:36:51;;;;;;;12.50;2.37;;;11.90;68.40;;;;;;4995656;28;20180;-89
2022/05/29 03:39:17;;;;;;;5.10;2.08;;;11.90;68.70;;;;;;5006158;28;20508;-89
2022/05/29 03:41:46;;;;;;;5.70;2.28;;;11.90;68.40;;;;;;5016155;28;20186;-88
2022/05/29 03:44:14;;;;;;;4.00;2.33;;;11.90;68.50;;;;;;5001190;28;20214;-89
2022/05/29 03:46:40;;;;;;;5.70;2.30;;;11.80;68.20;;;;;;5008298;28;20190;-89
2022/05/29 03:49:07;;;;;;;7.85;2.50;;;11.90;68.50;;;;;;5011085;28;20191;-88
2022/05/29 03:51:34;;;;;;;8.77;2.58;;;11.90;68.30;;;;;;4994393;28;20213;-89
2022/05/29 03:54:00;;;;;;;7.03;2.00;;;11.90;68.00;;;;;;5017720;28;20202;-89
2022/05/29 03:56:33;;;;;;;6.95;2.30;;;11.90;67.70;;;;;;5020045;28;20253;-89
2022/05/29 03:59:00;;;;;;;9.10;2.20;;;12.00;67.80;;;;;;5009521;28;20190;-89
2022/05/29 04:01:26;;;;;;;4.57;2.08;;;12.00;67.80;;;;;;5012132;28;20234;-89
2022/05/29 04:03:55;;;;;;;7.60;2.42;;;12.00;67.80;;;;;;5012374;28;20193;-89
2022/05/29 04:06:22;;;;;;;5.00;1.98;;;12.00;67.50;;;;;;5014921;28;20175;-88
2022/05/29 04:14:19;;;;;;;5.85;2.28;;;12.00;67.10;;;;;;5011403;28;20223;-89
2022/05/29 04:16:44;;;;;;;8.33;2.57;;;12.00;66.80;;;;;;5007840;28;20167;-88
2022/05/29 04:19:10;;;;;;;7.40;2.50;;;12.00;67.20;;;;;;5015159;28;20186;-88
2022/05/29 04:21:36;;;;;;;8.60;2.53;;;12.10;66.90;;;;;;5001821;28;20196;-88
2022/05/29 04:24:02;;;;;;;6.93;1.97;;;12.10;66.40;;;;;;5005695;28;20744;-88
2022/05/29 04:26:28;;;;;;;4.72;2.13;;;12.10;66.70;;;;;;5000796;28;20672;-88
2022/05/29 04:28:54;;;;;;;2.80;1.80;;;12.00;66.50;;;;;;4995071;28;20219;-88
2022/05/29 04:31:20;;;;;;;5.13;2.40;;;12.10;66.20;;;;;;4995956;28;20203;-88
2022/05/29 04:33:45;;;;;;;6.00;2.90;;;12.10;66.40;;;;;;5020070;28;20448;-88
2022/05/29 04:36:11;;;;;;;9.13;2.70;;;12.00;66.00;;;;;;5032433;28;20449;-88
2022/05/29 04:38:37;;;;;;;6.60;3.13;;;12.10;66.00;;;;;;5013475;28;20269;-88
2022/05/29 04:41:09;;;;;;;4.80;2.23;;;12.10;65.50;;;;;;4998027;28;20430;-88
2022/05/29 04:43:35;;;;;;;8.55;2.58;;;12.10;65.50;;;;;;5006269;28;20179;-89
2022/05/29 04:46:01;;;;;;;7.07;2.33;;;12.10;65.80;;;;;;5003738;28;20269;-89
2022/05/29 04:48:27;;;;;;;4.10;2.25;;;12.10;66.00;;;;;;5023012;28;20167;-89
2022/05/29 04:51:00;;;;;;;4.87;2.57;;;12.10;66.10;;;;;;5013398;28;20238;-89
2022/05/29 04:53:27;;;;;;;7.03;2.92;;;12.20;65.90;;;;;;5033490;28;20525;-89
2022/05/29 04:55:55;;;;;;;8.15;3.13;;;12.10;66.00;;;;;;5024478;28;20191;-89
2022/05/29 04:58:22;;;;;;;7.43;2.50;;;12.20;66.30;;;;;;5019130;28;20179;-89
2022/05/29 05:00:48;;;;;;;7.47;3.33;;;12.10;66.10;;;;;;5010132;28;20246;-88
2022/05/29 05:03:20;;;;;;;3.88;2.10;;;12.20;66.20;;;;;;5011312;28;20183;-89
2022/05/29 05:05:47;;;;;;;7.43;2.58;;;12.20;65.90;;;;;;5017748;28;20218;-89
2022/05/29 05:08:12;;;;;;;13.30;2.50;;;12.30;65.50;;;;;;5011575;28;20202;-89
2022/05/29 05:10:40;;;;;;;10.30;2.70;;;12.30;65.00;;;;;;4997864;28;20702;-89
2022/05/29 05:13:08;;;;;;;9.48;2.42;;;12.40;65.00;;;;;;5012265;28;20265;-89
2022/05/29 05:15:34;;;;;;;7.22;2.80;;;12.50;64.30;;;;;;5006404;28;20207;-89
2022/05/29 05:18:00;;;;;;;10.57;2.13;;;12.80;63.10;;;;;;4997685;28;20194;-89
2022/05/29 05:20:30;;;;;;;11.73;2.70;;;13.20;62.70;;;;;;5016338;28;20187;-89
2022/05/29 05:22:56;;;;;;;9.80;3.10;;;14.00;60.40;;;;;;5030705;28;20432;-89
2022/05/29 05:25:22;;;;;;;4.85;2.13;;;14.50;58.40;;;;;;5034224;28;20264;-89
2022/05/29 05:27:48;;;;;;;4.90;2.50;;;14.60;57.30;;;;;;5028773;28;20193;-89
2022/05/29 05:30:15;;;;;;;5.00;2.50;;;15.10;56.60;;;;;;5011006;28;20175;-90
2022/05/29 05:32:40;;;;;;;6.70;2.42;;;15.90;55.00;;;;;;5025827;28;20208;-89
2022/05/29 05:35:07;;;;;;;6.80;2.50;;;16.90;54.00;;;;;;5014387;28;20195;-89
2022/05/29 05:37:38;;;;;;;3.90;1.90;;;17.80;50.80;;;;;;5007912;28;20179;-90
2022/05/29 05:40:08;;;;;;;9.90;2.22;;;18.10;49.40;;;;;;5000974;28;20247;-89
2022/05/29 05:42:34;;;;;;;3.83;1.70;;;18.30;48.20;;;;;;5018722;28;20201;-89
2022/05/29 05:44:59;;;;;;;4.47;2.03;;;18.40;46.60;;;;;;5018112;28;20933;-89
2022/05/29 05:47:25;;;;;;;8.07;1.97;;;18.80;44.80;;;;;;5018199;28;20240;-89
2022/05/29 05:49:51;;;;;;;4.07;1.80;;;18.30;44.20;;;;;;5017322;28;20418;-89
2022/05/29 05:52:18;;;;;;;3.15;1.52;;;17.80;44.50;;;;;;5010011;28;20355;-89
2022/05/29 05:54:45;;;;;;;8.55;1.90;;;17.70;44.70;;;;;;5007902;28;20203;-89
2022/05/29 05:57:11;;;;;;;5.53;1.95;;;17.10;46.50;;;;;;5012892;28;20170;-89
2022/05/29 05:59:38;;;;;;;4.43;2.25;;;17.00;47.20;;;;;;5034948;28;20654;-89
2022/05/29 06:02:09;;;;;;;6.22;2.03;;;17.20;46.90;;;;;;5023736;28;20175;-89
2022/05/29 06:04:39;;;;;;;4.20;1.80;;;16.70;47.90;;;;;;5020932;28;20210;-89
2022/05/29 06:07:05;;;;;;;7.15;2.15;;;16.10;50.10;;;;;;5016137;28;20725;-89
2022/05/29 06:09:31;;;;;;;5.15;2.10;;;15.80;52.00;;;;;;5015641;28;20190;-89
2022/05/29 06:11:57;;;;;;;6.20;2.00;;;15.80;52.70;;;;;;4999224;28;20199;-89
2022/05/29 06:14:22;;;;;;;5.40;2.00;;;15.70;53.50;;;;;;5010843;28;20250;-89
2022/05/29 06:16:48;;;;;;;7.10;2.13;;;15.40;54.30;;;;;;5013094;28;20646;-89
2022/05/29 06:19:14;;;;;;;6.13;2.00;;;14.90;56.00;;;;;;4999243;28;20186;-89
2022/05/29 06:21:40;;;;;;;9.75;2.50;;;14.80;56.70;;;;;;4995901;28;20418;-89
2022/05/29 06:24:08;;;;;;;3.20;2.38;;;14.80;57.20;;;;;;4999497;28;20262;-89
2022/05/29 06:26:34;;;;;;;9.88;2.50;;;14.50;58.20;;;;;;5025258;28;20171;-89
2022/05/29 06:29:00;;;;;;;7.13;2.40;;;14.50;58.70;;;;;;5029366;28;20193;-89
2022/05/29 06:31:25;;;;;;;3.97;1.90;;;14.30;59.20;;;;;;5003901;28;20210;-88
2022/05/29 06:33:52;;;;;;;3.93;2.37;;;14.20;60.00;;;;;;4996580;28;20186;-90
2022/05/29 06:36:24;;;;;;;6.18;1.92;;;14.00;61.50;;;;;;5016001;28;20273;-89
2022/05/29 06:38:51;;;;;;;5.13;2.42;;;14.00;62.60;;;;;;5019680;28;20189;-89
2022/05/29 06:41:20;;;;;;;6.82;2.03;;;14.10;62.70;;;;;;5019388;28;20167;-89
2022/05/29 06:43:52;;;;;;;3.90;1.85;;;14.50;61.40;;;;;;5007474;28;20179;-89
2022/05/29 06:46:20;;;;;;;5.00;2.00;;;14.50;60.40;;;;;;5016683;28;20550;-89
2022/05/29 06:48:46;;;;;;;3.75;1.98;;;14.30;60.80;;;;;;5015953;28;20203;-89
2022/05/29 06:51:20;;;;;;;2.55;1.40;;;14.10;62.00;;;;;;5007950;28;20199;-90
2022/05/29 06:53:48;;;;;;;1.92;1.60;;;13.90;61.80;;;;;;5015693;28;20266;-89
2022/05/29 06:56:14;;;;;;;2.65;1.48;;;13.70;62.20;;;;;;5016061;28;20195;-89
2022/05/29 06:58:40;;;;;;;2.33;1.60;;;13.80;62.90;;;;;;5018989;28;20191;-89
2022/05/29 07:06:59;;;;;;;2.28;1.38;;;13.60;63.40;;;;;;5001321;28;20175;-90
2022/05/29 07:09:27;;;;;;;3.78;1.27;;;13.40;64.00;;;;;;5025125;28;20167;-89
2022/05/29 07:11:59;;;;;;;2.97;1.33;;;13.30;64.40;;;;;;5015958;28;20674;-89
2022/05/29 07:14:24;;;;;;;1.80;1.50;;;13.40;65.00;;;;;;5017213;28;20194;-89
2022/05/29 07:16:50;;;;;;;1.70;1.30;;;13.30;66.20;;;;;;4996009;28;20558;-88
2022/05/29 07:19:20;;;;;;;3.30;1.50;;;13.30;67.90;;;;;;5000055;28;20194;-89
2022/05/29 07:21:46;;;;;;;3.90;1.33;;;13.40;68.50;;;;;;5010778;28;20183;-89
2022/05/29 07:24:12;;;;;;;4.85;2.20;;;13.20;68.10;;;;;;5004865;28;20266;-89
2022/05/29 07:26:47;;;;;;;3.90;1.40;;;13.30;68.00;;;;;;5013329;28;20183;-89
2022/05/29 07:29:17;;;;;;;6.30;1.98;;;13.20;67.70;;;;;;4996357;28;20178;-89
2022/05/29 07:31:43;;;;;;;2.47;1.40;;;13.30;67.40;;;;;;5015832;28;20829;-89
2022/05/29 07:34:09;;;;;;;2.78;1.63;;;13.40;67.90;;;;;;5005999;28;20186;-89
2022/05/29 07:36:35;;;;;;;5.40;1.60;;;13.30;68.20;;;;;;4993117;28;20189;-88
2022/05/29 07:39:01;;;;;;;6.70;1.83;;;13.50;67.20;;;;;;5007649;28;20261;-88
2022/05/29 07:44:11;;;;;;;3.72;1.48;;;14.00;66.40;;;;;;5015680;28;20432;-88
2022/05/29 07:47:15;;;;;;;5.55;2.00;;;14.30;63.40;;;;;;4996926;28;20179;-88
2022/05/29 07:49:42;;;;;;;5.35;1.90;;;14.70;61.20;;;;;;5002822;28;20205;-88
2022/05/29 07:52:07;;;;;;;4.22;1.80;;;14.70;60.80;;;;;;5004859;28;20206;-88
2022/05/29 07:54:33;;;;;;;1.50;1.37;;;15.10;59.00;;;;;;5001631;28;20352;-88
2022/05/29 07:56:59;;;;;;;8.23;2.03;;;15.40;57.50;;;;;;4997915;28;20485;-91
2022/05/29 07:59:25;;;;;;;3.27;1.80;;;15.50;57.70;;;;;;4996817;28;20438;-91
2022/05/29 08:01:51;;;;;;;4.23;1.93;;;15.10;57.20;;;;;;4996761;28;20206;-91
2022/05/29 08:04:17;;;;;;;3.30;1.40;;;15.00;58.10;;;;;;4996681;28;20465;-92
2022/05/29 08:06:43;;;;;;;2.30;1.60;;;14.90;58.20;;;;;;4996254;28;20698;-93
2022/05/29 08:09:09;;;;;;;6.63;1.80;;;14.90;58.20;;;;;;4995782;28;20187;-92
2022/05/29 08:11:34;;;;;;;2.55;1.30;;;14.90;58.40;;;;;;4997769;28;20679;-92
2022/05/29 08:14:01;;;;;;;4.97;1.53;;;14.70;58.00;;;;;;4998125;28;20193;-92
2022/05/29 08:16:28;;;;;;;4.13;1.40;;;14.70;58.00;;;;;;5001994;28;20243;-92
2022/05/29 08:18:53;;;;;;;4.20;2.05;;;14.60;58.60;;;;;;5010151;28;20178;-92
2022/05/29 08:21:20;;;;;;;4.77;1.57;;;14.60;58.90;;;;;;5014759;28;20184;-92
2022/05/29 08:32:02;;;;;;;3.83;1.60;;;14.30;60.30;;;;;;5018955;28;20210;-90
2022/05/29 08:34:28;;;;;;;3.55;1.67;;;14.70;58.40;;;;;;5021845;28;20199;-91
2022/05/29 08:36:55;;;;;;;5.50;2.40;;;14.80;57.20;;;;;;5022116;28;20186;-90
2022/05/29 08:39:52;;;;;;;8.88;2.10;;;14.70;57.70;;;;;;5021814;28;20201;-91
2022/05/29 08:42:19;;;;;;;5.82;1.73;;;14.70;58.20;;;;;;5004468;28;20179;-89
2022/05/29 08:44:50;;;;;;;3.85;1.90;;;14.60;60.20;;;;;;5026586;28;20218;-90
2022/05/29 08:47:26;;;;;;;4.50;2.08;;;14.50;65.80;;;;;;5036143;28;20174;-89
2022/05/29 08:49:52;;;;;;;5.82;2.03;;;14.10;69.00;;;;;;5025059;28;20186;-90
2022/05/29 08:52:58;;;;;;;9.57;2.93;;;13.90;72.90;;;;;;5024650;28;20210;-86
2022/05/29 08:55:30;;;;;;;6.55;2.30;;;13.30;77.70;;;;;;5019639;28;20205;-87
2022/05/29 08:58:19;;;;;;;4.38;3.00;;;12.60;81.00;;;;;;5019012;28;20321;-88
2022/05/29 09:01:22;;;;;;;5.60;2.55;;;12.20;84.20;;;;;;5019440;28;20191;-88
2022/05/29 09:04:02;;;;;;;3.95;2.80;;;11.90;86.40;;;;;;5013333;28;20186;-86
2022/05/29 09:06:34;;;;;;;4.32;3.03;;;11.60;88.00;;;;;;5017097;28;20246;-89
2022/05/29 09:09:20;;;;;;;5.10;2.67;;;11.40;89.10;;;;;;5034246;28;20170;-89
2022/05/29 09:11:51;;;;;;;5.70;3.53;;;11.40;90.40;;;;;;5017805;28;20265;-88
2022/05/29 09:14:20;;;;;;;10.50;5.25;;;11.50;92.10;;;;;;5009519;28;20191;-87
2022/05/29 09:16:49;;;;;;;4.53;3.35;;;11.60;92.90;;;;;;5005945;28;20191;-89
2022/05/29 09:19:47;;;;;;;6.05;3.30;;;11.70;93.20;;;;;;5006037;28;20174;-87
2022/05/29 09:22:19;;;;;;;3.22;2.80;;;11.80;92.40;;;;;;5002447;28;20222;-88
2022/05/29 09:24:47;;;;;;;3.08;2.80;;;11.90;92.30;;;;;;5011566;28;20472;-84
2022/05/29 09:27:15;;;;;;;5.63;3.38;;;11.90;92.10;;;;;;4998229;28;20218;-89
2022/05/29 09:29:41;;;;;;;4.15;3.55;;;12.00;91.20;;;;;;5017186;28;20199;-89
2022/05/29 09:32:14;;;;;;;3.80;2.87;;;12.10;91.60;;;;;;5033565;28;20206;-89
2022/05/29 09:35:29;;;;;;;3.50;2.80;;;12.20;91.60;;;;;;5018426;28;20194;-88
2022/05/29 09:37:59;;;;;;;6.20;3.20;;;12.30;91.20;;;;;;5013721;28;20547;-89
2022/05/29 09:40:34;;;;;;;4.90;2.60;;;12.50;90.90;;;;;;5029042;28;20273;-89
2022/05/29 09:43:23;;;;;;;3.13;2.83;;;12.70;90.40;;;;;;5027829;28;20178;-89
2022/05/29 09:45:52;;;;;;;4.57;3.15;;;12.90;89.30;;;;;;5019762;28;20202;-87
2022/05/29 09:51:29;;;;;;;5.20;2.25;;;13.00;86.80;;;;;;5022214;28;20201;-86
2022/05/29 09:53:59;;;;;;;3.47;2.35;;;13.20;84.90;;;;;;5031988;28;20190;-87
2022/05/29 09:56:32;;;;;;;3.67;2.05;;;13.20;85.00;;;;;;5030671;28;20198;-87
2022/05/29 09:59:21;;;;;;;7.15;2.25;;;13.40;86.10;;;;;;5043642;28;20178;-84
2022/05/29 10:01:49;;;;;;;5.88;2.15;;;13.40;82.70;;;;;;5034672;28;20216;-84
2022/05/29 10:04:38;;;;;;;7.47;2.38;;;13.40;81.50;;;;;;5017185;28;20214;-88
2022/05/29 10:07:44;;;;;;;6.15;2.40;;;13.30;82.00;;;;;;5001152;28;20639;-88
2022/05/29 10:10:25;;;;;;;6.47;2.22;;;13.50;80.90;;;;;;5022656;28;20178;-91
2022/05/29 10:12:55;;;;;;;4.25;2.13;;;13.80;79.00;;;;;;5036989;28;20185;-91
2022/05/29 10:15:27;;;;;;;3.90;2.50;;;13.90;78.40;;;;;;5027605;28;20206;-90
2022/05/29 10:17:54;;;;;;;7.40;2.45;;;13.90;76.10;;;;;;5017516;28;20653;-87
2022/05/29 10:20:34;;;;;;;5.72;2.25;;;13.70;76.40;;;;;;5017257;28;20197;-87
2022/05/29 10:23:04;;;;;;;4.50;2.60;;;13.60;79.10;;;;;;5018793;28;20178;-88
2022/05/29 10:25:59;;;;;;;3.55;1.85;;;13.60;80.80;;;;;;5025782;28;20225;-89
2022/05/29 10:28:36;;;;;;;6.75;2.15;;;13.50;80.80;;;;;;5017910;28;20620;-88
2022/05/29 10:31:07;;;;;;;10.75;2.88;;;13.10;83.10;;;;;;5015401;28;20203;-87
2022/05/29 10:33:35;;;;;;;6.68;2.60;;;12.70;85.50;;;;;;5028144;28;20185;-88
2022/05/29 10:36:09;;;;;;;3.78;2.28;;;12.50;88.50;;;;;;5019391;28;20232;-88
2022/05/29 10:38:36;;;;;;;3.45;3.15;;;12.40;88.40;;;;;;5015598;28;20642;-88
2022/05/29 10:41:04;;;;;;;3.85;2.47;;;12.40;89.40;;;;;;5024017;28;20611;-88
2022/05/29 10:43:44;;;;;;;4.45;1.92;;;12.40;90.00;;;;;;5017464;28;20670;-88
2022/05/29 10:46:18;;;;;;;6.32;2.60;;;12.30;89.60;;;;;;5017036;28;20206;-87
2022/05/29 10:49:02;;;;;;;4.30;2.35;;;12.10;90.30;;;;;;5017995;28;20178;-88
2022/05/29 10:51:46;;;;;;;6.38;2.70;;;12.10;91.40;;;;;;5017719;28;20198;-91
2022/05/29 10:54:21;;;;;;;5.95;2.60;;;12.00;92.20;;;;;;5020838;28;20185;-88
2022/05/29 10:57:14;;;;;;;6.70;3.00;;;12.00;93.60;;;;;;5019926;28;20182;-87
2022/05/29 10:59:52;;;;;;;7.95;3.10;;;12.10;94.00;;;;;;5013138;28;20231;-87
2022/05/29 11:05:51;;;;;;;6.68;3.53;;;12.20;94.60;;;;;;5018047;28;20349;-88
2022/05/29 11:08:17;;;;;;;5.00;3.13;;;12.20;94.10;;;;;;5019363;28;20175;-90
2022/05/29 11:11:05;;;;;;;4.87;2.70;;;12.30;93.80;;;;;;5026941;28;20289;-88
2022/05/29 11:13:49;;;;;;;5.40;3.65;;;12.30;91.40;;;;;;5016247;28;20239;-88
2022/05/29 11:16:24;;;;;;;10.68;4.43;;;12.30;91.90;;;;;;5013454;28;20199;-89
2022/05/29 11:19:02;;;;;;;4.65;3.40;;;12.30;91.60;;;;;;5004850;28;20175;-90
2022/05/29 11:21:57;;;;;;;4.13;3.10;;;12.30;91.60;;;;;;5002826;28;20175;-91
2022/05/29 11:24:39;;;;;;;5.53;3.90;;;12.20;90.80;;;;;;5002746;28;20213;-91
2022/05/29 11:27:40;;;;;;;5.15;3.20;;;12.30;91.00;;;;;;5002888;28;20189;-89
2022/05/29 11:30:14;;;;;;;5.57;3.55;;;12.50;91.20;;;;;;5007579;28;20646;-86
2022/05/29 11:32:45;;;;;;;6.85;3.80;;;12.70;91.00;;;;;;4998299;28;20210;-86
2022/05/29 11:35:27;;;;;;;5.30;3.20;;;12.80;90.80;;;;;;5014615;28;20628;-87
2022/05/29 11:38:13;;;;;;;5.88;3.78;;;12.90;90.60;;;;;;5009108;28;20633;-86
2022/05/29 11:40:45;;;;;;;5.30;3.08;;;13.00;90.70;;;;;;5006974;28;20203;-87
2022/05/29 11:43:23;;;;;;;4.35;3.05;;;13.00;88.50;;;;;;4996222;28;20190;-86
2022/05/29 11:52:23;;;;;;;3.40;2.33;;;13.50;86.60;;;;;;5017316;28;20761;-86
2022/05/29 11:55:04;;;;;;;3.95;2.70;;;13.70;85.90;;;;;;5017814;28;20297;-87
2022/05/29 11:57:44;;;;;;;5.22;3.85;;;13.80;86.30;;;;;;5023472;28;20171;-86
2022/05/29 12:00:16;;;;;;;2.42;2.22;;;13.70;86.20;;;;;;5034329;28;20670;-86
2022/05/29 12:02:51;;;;;;;3.65;2.33;;;13.80;85.00;;;;;;5028769;28;20171;-86
2022/05/29 12:05:43;;;;;;;4.75;3.35;;;13.60;82.80;;;;;;5030559;28;20214;-86
2022/05/29 12:08:48;;;;;;;4.00;2.90;;;13.50;83.00;;;;;;5004089;28;20233;-86
2022/05/29 12:11:31;;;;;;;5.07;2.70;;;13.50;84.30;;;;;;5017995;28;20190;-86
2022/05/29 12:14:02;;;;;;;4.40;2.95;;;13.30;84.80;;;;;;5019726;28;20190;-87
2022/05/29 12:16:34;;;;;;;5.05;2.45;;;13.30;83.70;;;;;;5023972;28;20305;-87
2022/05/29 12:19:05;;;;;;;5.47;3.20;;;13.30;84.20;;;;;;5025235;28;20219;-86
2022/05/29 12:21:52;;;;;;;4.90;3.03;;;13.30;85.50;;;;;;5013139;28;20193;-87
2022/05/29 12:24:24;;;;;;;4.47;2.90;;;13.30;86.90;;;;;;5017259;28;20194;-87
2022/05/29 12:26:55;;;;;;;6.45;2.45;;;13.20;87.10;;;;;;5003102;28;20194;-88
2022/05/29 12:29:34;;;;;;;3.95;2.83;;;13.20;87.30;;;;;;5017054;28;20187;-88
2022/05/29 12:32:38;;;;;;;4.75;2.85;;;13.00;87.30;;;;;;5017503;28;20214;-87
2022/05/29 12:35:16;;;;;;;3.13;2.78;;;12.90;86.60;;;;;;5007680;28;20190;-87
2022/05/29 12:37:57;;;;;;;4.00;2.60;;;13.00;88.60;;;;;;5014207;28;20190;-87
2022/05/29 12:40:59;;;;;;;2.60;2.10;;;13.00;88.40;;;;;;5021102;28;20261;-87
2022/05/29 12:43:52;;;;;;;2.90;2.70;;;13.20;87.90;;;;;;5011454;28;20174;-87
2022/05/29 12:46:30;;;;;;;1.95;1.80;;;13.40;88.10;;;;;;5011383;28;20199;-87
2022/05/29 12:49:20;;;;;;;3.55;2.20;;;13.40;87.00;;;;;;5026656;28;20182;-86
2022/05/29 12:52:09;;;;;;;5.70;2.70;;;13.60;86.60;;;;;;5014025;28;20187;-85
2022/05/29 12:55:15;;;;;;;3.63;1.90;;;13.80;85.50;;;;;;5014715;28;20207;-83
2022/05/29 12:58:12;;;;;;;6.50;2.20;;;13.80;83.70;;;;;;5016993;28;20171;-87
2022/05/29 13:00:56;;;;;;;3.35;1.90;;;13.90;84.00;;;;;;5017693;28;20183;-87
2022/05/29 13:03:36;;;;;;;2.50;2.00;;;13.70;81.30;;;;;;5014275;28;20166;-87
2022/05/29 13:06:20;;;;;;;2.65;1.65;;;13.80;81.10;;;;;;5011350;28;20871;-86
2022/05/29 13:09:05;;;;;;;4.43;2.53;;;13.90;81.30;;;;;;5013816;28;20709;-86
2022/05/29 13:11:36;;;;;;;3.05;1.80;;;14.00;81.30;;;;;;5021049;28;20202;-89
2022/05/29 13:14:06;;;;;;;3.75;2.50;;;13.90;79.60;;;;;;5016855;28;20176;-85
2022/05/29 13:16:43;;;;;;;3.92;1.90;;;13.90;81.70;;;;;;5017580;28;20195;-89
2022/05/29 13:19:17;;;;;;;2.70;1.50;;;13.80;82.60;;;;;;5017943;28;20807;-86
2022/05/29 13:22:06;;;;;;;2.85;1.90;;;13.70;82.40;;;;;;5020632;28;20246;-86
2022/05/29 13:24:43;;;;;;;3.25;2.00;;;13.60;81.20;;;;;;5017578;28;20202;-89
2022/05/29 13:27:09;;;;;;;2.35;1.60;;;13.60;81.40;;;;;;5018766;28;20187;-87
2022/05/29 13:29:47;;;;;;;1.90;1.63;;;13.60;82.60;;;;;;5020817;28;20175;-88
2022/05/29 13:32:13;;;;;;;3.45;1.52;;;13.70;83.20;;;;;;5019633;28;20193;-87
2022/05/29 13:34:44;;;;;;;3.10;1.40;;;13.80;79.80;;;;;;5019778;28;20194;-87
2022/05/29 13:37:28;;;;;;;2.95;1.23;;;13.90;77.30;;;;;;5017501;28;20171;-87
2022/05/29 13:40:04;;;;;;;5.60;2.10;;;13.80;77.20;;;;;;5019182;28;20192;-87
2022/05/29 13:42:34;;;;;;;4.57;1.83;;;13.50;76.60;;;;;;5004792;28;20789;-88
2022/05/29 13:45:20;;;;;;;3.05;1.60;;;13.30;78.20;;;;;;5026153;28;20202;-88
2022/05/29 13:48:06;;;;;;;4.05;1.90;;;13.10;80.40;;;;;;5037598;28;20174;-88
2022/05/29 13:50:41;;;;;;;3.15;1.77;;;13.10;80.20;;;;;;5033189;28;20257;-87
2022/05/29 13:53:24;;;;;;;5.30;2.42;;;13.10;81.10;;;;;;5024053;28;20170;-85
2022/05/29 13:55:57;;;;;;;5.28;2.15;;;13.20;82.50;;;;;;5027325;28;20199;-86
2022/05/29 14:04:34;;;;;;;3.28;1.95;;;13.50;81.60;;;;;;5017312;28;20283;-87